Time;durP1;ratioP1;P1;durP2;ratioP2;P2;SDS_P1;SDS_P2;PMS_P1;PMS_P2;Temp;Humidity;BMP_temperature;BMP_pressure;BME280_temperature;BME280_humidity;BME280_pressure;Samples;Min_cycle;Max_cycle;Signal;HPM_P1;HPM_P2
2021/05/01 00:02:03;;;;;;;3.15;2.00;;;22.90;33.60;;;;;;5082324;28;20031;-54
2021/05/01 00:04:29;;;;;;;2.95;1.65;;;22.90;33.60;;;;;;5080936;28;20032;-54
2021/05/01 00:06:55;;;;;;;2.60;1.90;;;22.90;33.60;;;;;;5080239;28;20040;-54
2021/05/01 00:09:21;;;;;;;3.75;1.80;;;22.90;33.50;;;;;;5083054;28;20038;-58
2021/05/01 00:11:46;;;;;;;2.33;1.55;;;22.90;33.50;;;;;;5082585;28;20050;-54
2021/05/01 00:14:12;;;;;;;2.67;1.80;;;22.90;33.50;;;;;;5082805;28;20075;-55
2021/05/01 00:16:38;;;;;;;2.63;1.58;;;22.90;33.40;;;;;;5082242;28;20040;-57
2021/05/01 00:19:04;;;;;;;2.35;1.70;;;22.90;33.40;;;;;;5082224;28;20439;-59
2021/05/01 00:21:30;;;;;;;2.33;1.75;;;22.90;33.40;;;;;;5076035;28;20032;-53
2021/05/01 00:23:55;;;;;;;2.20;1.73;;;22.90;33.40;;;;;;5082180;28;20081;-53
2021/05/01 00:26:21;;;;;;;2.15;1.33;;;22.90;33.30;;;;;;5079671;28;20347;-53
2021/05/01 00:28:48;;;;;;;2.10;1.58;;;22.90;33.30;;;;;;5079945;28;20046;-54
2021/05/01 00:31:17;;;;;;;2.15;1.63;;;22.90;33.30;;;;;;5082136;28;20397;-60
2021/05/01 00:33:43;;;;;;;2.70;1.45;;;22.90;33.20;;;;;;5079827;28;20049;-57
2021/05/01 00:36:09;;;;;;;2.55;1.65;;;22.90;33.20;;;;;;5082020;28;20449;-56
2021/05/01 00:38:36;;;;;;;2.05;1.38;;;22.90;33.20;;;;;;5080659;28;20051;-54
2021/05/01 00:41:02;;;;;;;2.13;1.58;;;22.90;33.20;;;;;;5083727;28;20025;-54
2021/05/01 00:43:28;;;;;;;2.33;1.40;;;22.90;33.20;;;;;;5082241;28;20097;-57
2021/05/01 00:45:54;;;;;;;2.13;1.55;;;22.90;33.10;;;;;;5084019;28;20044;-56
2021/05/01 00:48:20;;;;;;;2.75;1.88;;;22.90;33.00;;;;;;5078231;28;20364;-59
2021/05/01 00:50:46;;;;;;;1.80;1.50;;;22.90;33.00;;;;;;5080937;28;20031;-57
2021/05/01 00:53:13;;;;;;;2.58;1.35;;;22.90;33.00;;;;;;5083998;28;20028;-55
2021/05/01 00:55:41;;;;;;;2.22;1.70;;;22.90;32.90;;;;;;5081533;28;20032;-57
2021/05/01 00:58:09;;;;;;;2.67;1.52;;;22.90;32.90;;;;;;5081134;28;20028;-56
2021/05/01 01:03:04;;;;;;;2.58;1.90;;;22.90;32.80;;;;;;5080443;28;20510;-55
2021/05/01 01:05:29;;;;;;;2.33;1.42;;;22.90;32.80;;;;;;5077090;28;20054;-52
2021/05/01 01:07:55;;;;;;;3.33;1.70;;;22.90;32.80;;;;;;5082992;28;20024;-56
2021/05/01 01:10:23;;;;;;;2.40;1.60;;;22.90;32.70;;;;;;5068898;28;20126;-58
2021/05/01 01:12:49;;;;;;;2.20;1.42;;;22.90;32.80;;;;;;5081932;28;20028;-59
2021/05/01 01:15:26;;;;;;;2.33;1.67;;;22.90;32.70;;;;;;5084219;28;20105;-57
2021/05/01 01:17:52;;;;;;;3.63;2.10;;;22.90;32.70;;;;;;5080694;28;20101;-56
2021/05/01 01:20:19;;;;;;;2.10;1.50;;;22.90;32.70;;;;;;5082770;28;20025;-53
2021/05/01 01:22:45;;;;;;;2.00;1.40;;;22.90;32.70;;;;;;5087097;28;20060;-59
2021/05/01 01:25:11;;;;;;;2.05;1.40;;;22.90;32.70;;;;;;5086209;28;20025;-59
2021/05/01 01:27:38;;;;;;;2.53;1.40;;;22.90;32.70;;;;;;5084215;28;20091;-56
2021/05/01 01:30:07;;;;;;;2.70;1.60;;;22.90;32.70;;;;;;5084197;28;20393;-53
2021/05/01 01:32:33;;;;;;;2.20;1.50;;;22.90;32.80;;;;;;5084861;28;20149;-56
2021/05/01 01:34:59;;;;;;;2.20;1.70;;;22.80;32.60;;;;;;5087836;28;20432;-58
2021/05/01 01:37:25;;;;;;;2.72;1.33;;;22.80;32.60;;;;;;5084421;28;20093;-58
2021/05/01 01:39:51;;;;;;;1.92;1.48;;;22.80;32.60;;;;;;5081378;28;20035;-59
2021/05/01 01:42:17;;;;;;;2.92;1.50;;;22.80;32.60;;;;;;5084722;28;20073;-52
2021/05/01 01:44:43;;;;;;;2.80;1.50;;;22.80;32.60;;;;;;5084128;28;20494;-59
2021/05/01 01:47:09;;;;;;;2.85;1.60;;;22.80;32.60;;;;;;5085633;28;20047;-53
2021/05/01 01:49:37;;;;;;;2.22;1.73;;;22.80;32.60;;;;;;5085613;28;20028;-55
2021/05/01 01:52:03;;;;;;;2.88;1.65;;;22.80;32.50;;;;;;5086024;28;20028;-59
2021/05/01 01:54:29;;;;;;;2.50;1.67;;;22.80;32.50;;;;;;5081124;28;20402;-54
2021/05/01 01:56:58;;;;;;;1.55;1.13;;;22.80;32.50;;;;;;5083718;28;20028;-56
2021/05/01 01:59:24;;;;;;;2.58;1.45;;;22.80;32.50;;;;;;5079422;28;20112;-53
2021/05/01 02:01:50;;;;;;;2.15;1.13;;;22.80;32.50;;;;;;5083849;28;20446;-57
2021/05/01 02:04:16;;;;;;;2.58;1.38;;;22.70;32.40;;;;;;5087063;28;20029;-57
2021/05/01 02:06:42;;;;;;;2.75;1.52;;;22.80;32.50;;;;;;5086964;28;20051;-60
2021/05/01 02:09:08;;;;;;;1.88;1.17;;;22.80;32.40;;;;;;5083525;28;20024;-56
2021/05/01 02:11:34;;;;;;;1.70;1.10;;;22.80;32.40;;;;;;5065560;28;20028;-59
2021/05/01 02:13:59;;;;;;;2.35;1.55;;;22.80;32.40;;;;;;5080941;28;20024;-58
2021/05/01 02:16:25;;;;;;;1.65;1.13;;;22.80;32.40;;;;;;5085708;28;20028;-53
2021/05/01 02:18:51;;;;;;;2.10;1.30;;;22.70;32.30;;;;;;5082710;28;20131;-58
2021/05/01 02:21:17;;;;;;;1.40;1.20;;;22.80;32.40;;;;;;5085293;28;20035;-58
2021/05/01 02:23:42;;;;;;;2.30;1.10;;;22.70;32.30;;;;;;5082145;28;20039;-56
2021/05/01 02:26:08;;;;;;;2.22;1.48;;;22.70;32.30;;;;;;5079309;28;20036;-56
2021/05/01 02:28:34;;;;;;;1.50;1.20;;;22.70;32.30;;;;;;5086592;28;20340;-55
2021/05/01 02:31:00;;;;;;;1.45;1.10;;;22.80;32.40;;;;;;5085059;28;20036;-57
2021/05/01 02:33:27;;;;;;;2.10;1.10;;;22.70;32.40;;;;;;5083262;28;20520;-58
2021/05/01 02:35:52;;;;;;;1.67;1.05;;;22.70;32.30;;;;;;5068922;28;20471;-58
2021/05/01 02:38:18;;;;;;;1.75;1.17;;;22.70;32.30;;;;;;5081196;28;20016;-57
2021/05/01 02:40:44;;;;;;;2.30;1.50;;;22.70;32.30;;;;;;5086548;28;20114;-56
2021/05/01 02:43:11;;;;;;;1.83;1.10;;;22.70;32.30;;;;;;5084709;28;20402;-55
2021/05/01 02:45:37;;;;;;;2.17;1.10;;;22.70;32.20;;;;;;5085034;28;20064;-58
2021/05/01 02:48:04;;;;;;;2.00;1.17;;;22.70;32.30;;;;;;5084877;28;20129;-54
2021/05/01 02:50:30;;;;;;;1.88;1.00;;;22.70;32.30;;;;;;5083021;28;20028;-57
2021/05/01 02:52:56;;;;;;;1.48;0.95;;;22.70;32.20;;;;;;5082496;28;20116;-55
2021/05/01 02:55:22;;;;;;;2.33;1.20;;;22.70;32.20;;;;;;5063658;28;20017;-57
2021/05/01 02:57:51;;;;;;;2.22;1.35;;;22.70;32.20;;;;;;5084592;28;20443;-53
2021/05/01 03:00:20;;;;;;;1.65;0.90;;;22.70;32.20;;;;;;5064484;28;20024;-58
2021/05/01 03:02:46;;;;;;;1.48;1.10;;;22.70;32.20;;;;;;5084564;28;20028;-58
2021/05/01 03:05:13;;;;;;;1.83;1.10;;;22.70;32.20;;;;;;5077509;28;20463;-58
2021/05/01 03:07:40;;;;;;;1.58;0.95;;;22.70;32.20;;;;;;5080232;28;20036;-56
2021/05/01 03:10:11;;;;;;;2.05;1.15;;;22.70;32.20;;;;;;5085096;28;20031;-55
2021/05/01 03:12:37;;;;;;;2.03;1.00;;;22.70;32.20;;;;;;5082922;28;20357;-56
2021/05/01 03:15:05;;;;;;;1.58;0.80;;;22.60;32.10;;;;;;5077858;28;20028;-59
2021/05/01 03:17:31;;;;;;;2.42;1.23;;;22.60;32.20;;;;;;5084941;28;20035;-54
2021/05/01 03:19:56;;;;;;;1.25;0.80;;;22.60;32.20;;;;;;5066651;28;20028;-54
2021/05/01 03:22:23;;;;;;;2.03;1.10;;;22.60;32.10;;;;;;5084491;28;20458;-56
2021/05/01 03:24:48;;;;;;;1.55;0.90;;;22.60;32.10;;;;;;5081546;28;20061;-57
2021/05/01 03:27:14;;;;;;;2.35;1.08;;;22.60;32.10;;;;;;5082893;28;20032;-53
2021/05/01 03:29:40;;;;;;;1.73;0.90;;;22.60;32.10;;;;;;5086337;28;20434;-53
2021/05/01 03:32:06;;;;;;;2.58;1.23;;;22.60;32.10;;;;;;5082553;28;20031;-55
2021/05/01 03:34:32;;;;;;;2.17;1.10;;;22.60;32.10;;;;;;5084131;28;20044;-54
2021/05/01 03:36:57;;;;;;;2.00;1.00;;;22.60;32.10;;;;;;5081578;28;20058;-58
2021/05/01 03:39:23;;;;;;;1.20;0.98;;;22.60;32.10;;;;;;5087799;28;20035;-53
2021/05/01 03:41:50;;;;;;;1.23;0.90;;;22.60;32.10;;;;;;5077024;28;20339;-52
2021/05/01 03:44:16;;;;;;;1.83;1.23;;;22.60;32.10;;;;;;5082604;28;20178;-52
2021/05/01 03:46:42;;;;;;;1.52;1.20;;;22.60;32.10;;;;;;5082803;28;20177;-58
2021/05/01 03:49:08;;;;;;;1.25;0.90;;;22.60;32.00;;;;;;5079320;28;20116;-53
2021/05/01 03:51:34;;;;;;;2.03;1.10;;;22.60;32.00;;;;;;5083469;28;20031;-54
2021/05/01 03:54:00;;;;;;;1.73;1.17;;;22.60;32.00;;;;;;5084105;28;20028;-56
2021/05/01 03:56:26;;;;;;;1.58;1.02;;;22.60;32.00;;;;;;5083459;28;20085;-53
2021/05/01 03:58:52;;;;;;;2.03;1.15;;;22.60;32.00;;;;;;5070216;28;20351;-57
2021/05/01 04:01:17;;;;;;;1.85;1.00;;;22.50;31.90;;;;;;5080079;28;20037;-59
2021/05/01 04:03:43;;;;;;;1.88;0.90;;;22.50;31.90;;;;;;5086604;28;20063;-60
2021/05/01 04:06:09;;;;;;;1.65;0.98;;;22.60;31.90;;;;;;5084515;28;20061;-58
2021/05/01 04:08:37;;;;;;;1.70;1.10;;;22.50;31.90;;;;;;5081912;28;20029;-60
2021/05/01 04:11:03;;;;;;;1.48;0.95;;;22.60;31.90;;;;;;5083184;28;20082;-55
2021/05/01 04:13:29;;;;;;;2.45;1.10;;;22.50;31.90;;;;;;5087874;28;20036;-58
2021/05/01 04:15:55;;;;;;;1.42;0.95;;;22.60;31.90;;;;;;5080456;28;20055;-53
2021/05/01 04:18:21;;;;;;;1.58;1.00;;;22.50;31.80;;;;;;5082866;28;20031;-55
2021/05/01 04:20:47;;;;;;;2.00;1.25;;;22.50;31.80;;;;;;5062965;28;20407;-49
2021/05/01 04:23:13;;;;;;;1.50;1.10;;;22.50;31.80;;;;;;5080904;28;20031;-50
2021/05/01 04:25:39;;;;;;;1.33;1.00;;;22.50;31.80;;;;;;5065046;28;20028;-50
2021/05/01 04:28:05;;;;;;;1.73;1.20;;;22.50;31.80;;;;;;5081679;28;20039;-47
2021/05/01 04:30:33;;;;;;;1.70;1.25;;;22.50;31.80;;;;;;5088202;28;20497;-57
2021/05/01 04:32:59;;;;;;;1.65;1.23;;;22.50;31.80;;;;;;5081268;28;20035;-56
2021/05/01 04:35:25;;;;;;;1.02;0.85;;;22.50;31.80;;;;;;5084522;28;20065;-56
2021/05/01 04:37:51;;;;;;;1.65;1.20;;;22.50;31.70;;;;;;5083083;28;20029;-56
2021/05/01 04:40:17;;;;;;;1.92;1.02;;;22.50;31.70;;;;;;5080939;28;20419;-57
2021/05/01 04:42:48;;;;;;;1.45;0.82;;;22.50;31.70;;;;;;5088314;28;20036;-52
2021/05/01 04:45:17;;;;;;;1.83;1.00;;;22.50;31.70;;;;;;5082148;28;20039;-52
2021/05/01 04:47:44;;;;;;;1.52;0.98;;;22.50;31.60;;;;;;5085127;28;20216;-47
2021/05/01 04:50:12;;;;;;;2.20;0.88;;;22.50;31.60;;;;;;5090041;28;20169;-53
2021/05/01 04:52:39;;;;;;;1.42;0.82;;;22.40;32.20;;;;;;5086418;28;20340;-52
2021/05/01 04:55:15;;;;;;;2.53;1.00;;;22.50;31.60;;;;;;5066189;28;20358;-50
2021/05/01 04:57:42;;;;;;;1.80;1.08;;;22.40;31.50;;;;;;5066975;28;20045;-48
2021/05/01 05:00:09;;;;;;;2.00;0.98;;;22.40;31.50;;;;;;5083585;28;20109;-58
2021/05/01 05:02:34;;;;;;;1.50;0.93;;;22.40;31.50;;;;;;5088829;28;20028;-57
2021/05/01 05:05:02;;;;;;;2.03;1.10;;;22.40;31.50;;;;;;5081714;28;20085;-53
2021/05/01 05:07:28;;;;;;;1.33;0.95;;;22.40;31.50;;;;;;5083573;28;20061;-55
2021/05/01 05:09:54;;;;;;;1.77;0.98;;;22.40;31.50;;;;;;5086816;28;20028;-56
2021/05/01 05:12:20;;;;;;;1.30;0.85;;;22.40;31.50;;;;;;5083292;28;20085;-58
2021/05/01 05:14:46;;;;;;;2.42;1.00;;;22.40;31.50;;;;;;5064042;28;20032;-58
2021/05/01 05:17:12;;;;;;;2.25;1.00;;;22.40;31.60;;;;;;5085004;28;20057;-56
2021/05/01 05:19:37;;;;;;;1.63;0.90;;;22.40;31.60;;;;;;5090953;28;20432;-55
2021/05/01 05:22:03;;;;;;;1.33;0.90;;;22.40;31.60;;;;;;5081442;28;20089;-51
2021/05/01 05:24:29;;;;;;;1.17;1.00;;;22.40;31.60;;;;;;5085906;28;20090;-53
2021/05/01 05:26:55;;;;;;;1.50;1.10;;;22.40;31.50;;;;;;5087285;28;20050;-57
2021/05/01 05:29:21;;;;;;;1.02;0.90;;;22.40;31.50;;;;;;5067016;28;20035;-53
2021/05/01 05:31:46;;;;;;;1.85;1.05;;;22.40;31.50;;;;;;5083928;28;20503;-58
2021/05/01 05:34:12;;;;;;;1.48;0.90;;;22.40;31.50;;;;;;5079589;28;20459;-59
2021/05/01 05:36:39;;;;;;;1.90;1.10;;;22.40;31.50;;;;;;5085824;28;20343;-57
2021/05/01 05:39:05;;;;;;;1.35;0.90;;;22.40;31.50;;;;;;5083675;28;20372;-57
2021/05/01 05:41:31;;;;;;;2.30;1.20;;;22.40;31.40;;;;;;5085495;28;20024;-55
2021/05/01 05:43:58;;;;;;;1.40;0.70;;;22.40;31.40;;;;;;5083014;28;20102;-53
2021/05/01 05:46:23;;;;;;;1.67;0.88;;;22.40;31.40;;;;;;5086755;28;20516;-53
2021/05/01 05:48:49;;;;;;;1.63;1.05;;;22.40;31.40;;;;;;5082908;28;20112;-56
2021/05/01 05:51:15;;;;;;;2.25;1.02;;;22.40;31.40;;;;;;5084601;28;20032;-55
2021/05/01 05:53:41;;;;;;;1.73;1.10;;;22.40;31.40;;;;;;5083267;28;20031;-56
2021/05/01 05:56:07;;;;;;;1.33;1.10;;;22.40;31.40;;;;;;5084375;28;20031;-54
2021/05/01 05:58:33;;;;;;;1.52;0.95;;;22.40;31.40;;;;;;5085983;28;20027;-54
2021/05/01 06:00:59;;;;;;;1.30;1.00;;;22.40;31.40;;;;;;5079762;28;20020;-53
2021/05/01 06:03:27;;;;;;;2.15;1.30;;;22.40;31.40;;;;;;5085536;28;20035;-51
2021/05/01 06:05:58;;;;;;;1.52;0.90;;;22.40;31.40;;;;;;5082680;28;20049;-55
2021/05/01 06:08:24;;;;;;;1.73;1.10;;;22.40;31.40;;;;;;5063821;28;20028;-56
2021/05/01 06:10:51;;;;;;;1.63;0.90;;;22.40;31.40;;;;;;5082110;28;20021;-59
2021/05/01 06:13:20;;;;;;;1.63;1.00;;;22.40;31.40;;;;;;5085325;28;20028;-54
2021/05/01 06:15:47;;;;;;;1.52;0.98;;;22.40;32.00;;;;;;5083986;28;20074;-56
2021/05/01 06:18:17;;;;;;;2.08;1.38;;;22.40;31.40;;;;;;5086229;28;20067;-56
2021/05/01 06:20:44;;;;;;;2.28;1.10;;;22.40;31.50;;;;;;5080302;28;20068;-54
2021/05/01 06:23:10;;;;;;;1.38;1.05;;;22.40;31.50;;;;;;5078148;28;20107;-55
2021/05/01 06:25:36;;;;;;;1.67;0.93;;;22.40;31.50;;;;;;5083906;28;20031;-55
2021/05/01 06:28:03;;;;;;;1.33;0.82;;;22.50;31.60;;;;;;5067935;28;20367;-56
2021/05/01 06:30:29;;;;;;;2.03;1.00;;;22.40;31.60;;;;;;5083354;28;20040;-55
2021/05/01 06:32:59;;;;;;;1.20;0.70;;;22.40;31.50;;;;;;5081122;28;20419;-58
2021/05/01 06:35:25;;;;;;;1.10;0.82;;;22.40;31.50;;;;;;5083365;28;20339;-58
2021/05/01 06:37:53;;;;;;;1.42;0.95;;;22.40;31.60;;;;;;5082077;28;20029;-55
2021/05/01 06:40:24;;;;;;;1.63;1.08;;;22.40;31.60;;;;;;5081813;28;20024;-55
2021/05/01 06:42:59;;;;;;;1.83;1.05;;;22.40;31.50;;;;;;5084196;28;20032;-51
2021/05/01 06:45:26;;;;;;;1.30;0.98;;;22.40;31.50;;;;;;5081146;28;20021;-55
2021/05/01 06:48:03;;;;;;;2.15;0.95;;;22.40;31.60;;;;;;5087742;28;20069;-56
2021/05/01 06:50:30;;;;;;;3.22;1.10;;;22.40;31.60;;;;;;5080073;28;20345;-56
2021/05/01 06:52:58;;;;;;;1.42;1.13;;;22.40;31.60;;;;;;5077970;28;20038;-53
2021/05/01 06:55:27;;;;;;;1.95;1.27;;;22.40;31.60;;;;;;5085246;28;20020;-51
2021/05/01 06:57:55;;;;;;;1.60;0.93;;;22.40;31.60;;;;;;5083280;28;20055;-58
2021/05/01 07:00:23;;;;;;;2.40;1.17;;;22.40;31.60;;;;;;5080697;28;20032;-54
2021/05/01 07:03:04;;;;;;;1.75;1.00;;;22.40;31.70;;;;;;5081207;28;20066;-58
2021/05/01 07:05:30;;;;;;;2.20;1.20;;;22.40;31.70;;;;;;5063947;28;20368;-57
2021/05/01 07:07:56;;;;;;;1.65;1.10;;;22.40;31.80;;;;;;5078795;28;20044;-58
2021/05/01 07:10:23;;;;;;;1.13;0.95;;;22.30;31.80;;;;;;5065577;28;20111;-57
2021/05/01 07:12:49;;;;;;;2.70;1.13;;;22.30;31.90;;;;;;5083474;28;21544;-57
2021/05/01 07:15:17;;;;;;;2.33;1.00;;;22.30;31.90;;;;;;5081939;28;20044;-57
2021/05/01 07:17:44;;;;;;;1.30;1.10;;;22.30;32.00;;;;;;5065187;28;20536;-56
2021/05/01 07:20:12;;;;;;;2.03;1.00;;;22.30;32.00;;;;;;5077374;28;20396;-57
2021/05/01 07:22:38;;;;;;;1.73;1.00;;;22.20;32.00;;;;;;5066518;28;20036;-55
2021/05/01 07:25:08;;;;;;;1.88;1.10;;;22.20;32.10;;;;;;5066902;28;20462;-54
2021/05/01 07:27:41;;;;;;;1.88;0.95;;;22.20;32.10;;;;;;5079361;28;20047;-58
2021/05/01 07:30:08;;;;;;;2.10;0.93;;;22.20;32.20;;;;;;5080893;28;20171;-61
2021/05/01 07:32:38;;;;;;;1.65;0.80;;;22.20;32.30;;;;;;5079768;28;20039;-56
2021/05/01 07:35:07;;;;;;;2.72;1.10;;;22.10;33.10;;;;;;5080625;28;20028;-55
2021/05/01 07:37:37;;;;;;;1.80;1.00;;;22.10;32.50;;;;;;5078065;28;20024;-56
2021/05/01 07:40:07;;;;;;;3.28;1.15;;;22.10;32.50;;;;;;5078613;28;20118;-54
2021/05/01 07:42:51;;;;;;;1.10;1.00;;;22.20;32.70;;;;;;5081633;28;20037;-55
2021/05/01 07:45:22;;;;;;;;;;;22.20;32.80;;;;;;5081423;28;20356;-55
2021/05/01 07:47:51;;;;;;;1.67;0.93;;;22.20;32.80;;;;;;5080567;28;19916;-59
2021/05/01 07:50:18;;;;;;;1.35;0.80;;;22.20;32.90;;;;;;5078808;28;20189;-57
2021/05/01 07:52:45;;;;;;;2.97;1.30;;;22.20;33.00;;;;;;5087822;28;20054;-57
2021/05/01 07:55:12;;;;;;;1.15;0.80;;;22.30;33.10;;;;;;5087270;28;20043;-54
2021/05/01 07:57:38;;;;;;;2.20;0.90;;;22.30;33.20;;;;;;5085556;28;20024;-54
2021/05/01 08:00:06;;;;;;;2.03;0.85;;;22.30;33.20;;;;;;5080168;28;20166;-56
2021/05/01 08:02:41;;;;;;;1.60;1.02;;;22.40;33.30;;;;;;5074939;28;20106;-58
2021/05/01 08:05:08;;;;;;;1.83;1.10;;;22.40;33.30;;;;;;5094205;28;20040;-55
2021/05/01 08:07:34;;;;;;;0.98;0.77;;;22.50;33.40;;;;;;5075320;28;20052;-54
2021/05/01 08:10:00;;;;;;;1.25;0.90;;;22.50;33.40;;;;;;5080888;28;20324;-58
2021/05/01 08:12:26;;;;;;;2.03;1.42;;;22.60;33.50;;;;;;5082839;28;20028;-60
2021/05/01 08:14:52;;;;;;;1.90;1.30;;;22.60;33.50;;;;;;5081282;28;20073;-59
2021/05/01 08:17:18;;;;;;;3.30;1.67;;;22.70;33.50;;;;;;5084831;28;20028;-59
2021/05/01 08:19:43;;;;;;;2.97;2.20;;;22.70;33.50;;;;;;5088987;28;20443;-56
2021/05/01 08:22:09;;;;;;;3.67;2.88;;;22.70;33.50;;;;;;5064609;28;20477;-56
2021/05/01 08:24:35;;;;;;;3.80;2.95;;;22.80;33.60;;;;;;5083181;28;20119;-54
2021/05/01 08:27:01;;;;;;;4.72;3.92;;;22.80;33.50;;;;;;5085329;28;20432;-56
2021/05/01 08:29:27;;;;;;;6.55;4.38;;;22.80;33.40;;;;;;5089728;28;20031;-49
2021/05/01 08:31:53;;;;;;;5.82;4.50;;;22.80;33.30;;;;;;5072193;28;20029;-55
2021/05/01 08:34:25;;;;;;;5.88;4.55;;;22.80;33.10;;;;;;5065101;28;20024;-59
2021/05/01 08:36:51;;;;;;;5.75;4.93;;;22.80;33.00;;;;;;5050732;28;20508;-56
2021/05/01 08:39:17;;;;;;;7.57;6.15;;;22.80;32.90;;;;;;5072900;28;20033;-56
2021/05/01 08:41:43;;;;;;;9.38;7.63;;;22.80;32.90;;;;;;5065266;28;20021;-61
2021/05/01 08:44:10;;;;;;;9.55;7.47;;;22.90;33.00;;;;;;5063791;28;20462;-58
2021/05/01 08:46:37;;;;;;;11.15;8.52;;;22.90;32.90;;;;;;5061453;28;20047;-57
2021/05/01 08:49:05;;;;;;;9.65;7.85;;;22.90;32.80;;;;;;5064619;28;20064;-56
2021/05/01 08:51:30;;;;;;;10.00;8.35;;;22.90;32.70;;;;;;5074271;28;20032;-55
2021/05/01 08:53:56;;;;;;;12.05;9.00;;;22.90;32.80;;;;;;5069508;28;20033;-57
2021/05/01 08:56:22;;;;;;;12.00;10.02;;;23.00;32.90;;;;;;5071607;28;20055;-59
2021/05/01 08:58:48;;;;;;;14.13;11.20;;;23.00;32.90;;;;;;5057532;28;20429;-57
2021/05/01 09:01:16;;;;;;;13.77;10.77;;;23.00;33.00;;;;;;5074956;28;20040;-57
2021/05/01 09:03:43;;;;;;;15.15;12.32;;;23.00;33.00;;;;;;5075424;28;20021;-59
2021/05/01 09:06:10;;;;;;;14.50;11.55;;;23.00;33.00;;;;;;5071192;28;20052;-58
2021/05/01 09:08:42;;;;;;;14.75;12.07;;;23.00;33.00;;;;;;5060211;28;20029;-58
2021/05/01 09:11:09;;;;;;;15.40;12.88;;;23.00;32.90;;;;;;5090805;28;20039;-59
2021/05/01 09:13:46;;;;;;;16.02;13.77;;;23.10;33.00;;;;;;5060015;28;20020;-56
2021/05/01 09:16:16;;;;;;;17.67;14.23;;;23.10;32.90;;;;;;5086602;28;20032;-57
2021/05/01 09:18:50;;;;;;;17.70;14.63;;;23.10;32.90;;;;;;5091072;28;20103;-61
2021/05/01 09:21:25;;;;;;;18.75;14.80;;;23.10;32.90;;;;;;5070329;28;20359;-56
2021/05/01 09:23:52;;;;;;;17.77;14.82;;;23.10;32.80;;;;;;5061252;28;20105;-57
2021/05/01 09:26:32;;;;;;;17.77;15.55;;;23.10;32.70;;;;;;5039593;28;20037;-59
2021/05/01 09:28:59;;;;;;;18.10;15.25;;;23.10;32.70;;;;;;5063275;28;20025;-58
2021/05/01 09:31:27;;;;;;;17.42;15.07;;;23.10;32.60;;;;;;5082648;28;20110;-60
2021/05/01 09:33:55;;;;;;;19.48;16.50;;;23.10;32.60;;;;;;5084214;28;20059;-60
2021/05/01 09:36:24;;;;;;;17.98;16.02;;;23.10;32.60;;;;;;5083382;28;20094;-62
2021/05/01 09:38:55;;;;;;;19.35;16.70;;;23.20;32.70;;;;;;5084610;28;20093;-57
2021/05/01 09:41:33;;;;;;;19.58;17.05;;;23.10;32.70;;;;;;5086431;28;20036;-59
2021/05/01 09:44:10;;;;;;;19.00;16.48;;;23.20;32.70;;;;;;5078279;28;20041;-49
2021/05/01 09:46:42;;;;;;;20.23;16.23;;;23.20;32.40;;;;;;5082518;28;20130;-60
2021/05/01 09:49:12;;;;;;;16.92;14.32;;;23.20;32.30;;;;;;5083262;28;20452;-59
2021/05/01 09:51:46;;;;;;;16.48;13.95;;;23.20;32.20;;;;;;5085035;28;20106;-57
2021/05/01 09:54:13;;;;;;;17.17;13.60;;;23.20;32.00;;;;;;5086191;28;20402;-53
2021/05/01 09:56:43;;;;;;;16.33;13.10;;;23.20;32.00;;;;;;5082688;28;20040;-58
2021/05/01 09:59:09;;;;;;;16.73;13.13;;;23.10;31.90;;;;;;5086445;28;20032;-54
2021/05/01 10:01:36;;;;;;;14.10;12.30;;;23.10;31.80;;;;;;5081290;28;20020;-60
2021/05/01 10:04:16;;;;;;;16.67;13.13;;;23.00;31.60;;;;;;5088842;28;20028;-58
2021/05/01 10:06:52;;;;;;;17.20;12.25;;;23.00;31.50;;;;;;5084654;28;20052;-58
2021/05/01 10:09:25;;;;;;;14.55;12.43;;;23.00;31.50;;;;;;5085083;28;20024;-58
2021/05/01 10:11:53;;;;;;;14.80;12.45;;;23.00;31.50;;;;;;5090579;28;20039;-59
2021/05/01 10:14:51;;;;;;;16.52;12.13;;;23.00;31.50;;;;;;5081377;28;20021;-61
2021/05/01 10:17:26;;;;;;;14.73;12.50;;;22.90;31.30;;;;;;5085013;28;20043;-62
2021/05/01 10:19:54;;;;;;;14.90;11.45;;;22.90;31.30;;;;;;5083448;28;20039;-59
2021/05/01 10:22:26;;;;;;;16.48;12.68;;;22.90;31.30;;;;;;5073015;28;20032;-63
2021/05/01 10:24:53;;;;;;;17.20;13.38;;;22.90;31.30;;;;;;5063984;28;20090;-60
2021/05/01 10:27:19;;;;;;;16.55;13.65;;;22.90;31.20;;;;;;5071712;28;20456;-60
2021/05/01 10:30:03;;;;;;;17.90;13.80;;;22.90;31.20;;;;;;5063460;28;20036;-62
2021/05/01 10:32:32;;;;;;;17.55;13.65;;;22.90;31.10;;;;;;5062671;28;20502;-63
2021/05/01 10:35:00;;;;;;;17.13;13.77;;;22.80;31.10;;;;;;5068502;28;20047;-61
2021/05/01 10:37:44;;;;;;;17.50;14.73;;;22.80;31.00;;;;;;5079213;28;20037;-64
2021/05/01 10:40:11;;;;;;;15.00;12.63;;;22.80;30.90;;;;;;5081371;28;20076;-65
2021/05/01 10:42:37;;;;;;;16.23;13.43;;;22.80;31.00;;;;;;5086555;28;20024;-65
2021/05/01 10:45:04;;;;;;;15.77;13.18;;;22.80;30.90;;;;;;5064157;28;20047;-65
2021/05/01 10:47:32;;;;;;;15.88;12.90;;;22.80;30.80;;;;;;5084214;28;20119;-62
2021/05/01 10:50:01;;;;;;;16.30;13.70;;;22.70;30.80;;;;;;5075820;28;20072;-61
2021/05/01 10:52:27;;;;;;;16.40;13.15;;;22.70;30.80;;;;;;5071064;28;20040;-63
2021/05/01 10:55:02;;;;;;;17.23;13.88;;;22.80;30.90;;;;;;5048730;28;20024;-58
2021/05/01 10:57:30;;;;;;;16.20;12.65;;;22.80;30.90;;;;;;5067811;28;20128;-60
2021/05/01 11:00:18;;;;;;;15.32;12.43;;;22.70;30.90;;;;;;5072991;28;20032;-62
2021/05/01 11:02:48;;;;;;;14.85;11.77;;;22.70;30.90;;;;;;5061094;28;20033;-60
2021/05/01 11:05:14;;;;;;;13.45;10.77;;;22.70;30.90;;;;;;5067469;28;20056;-62
2021/05/01 11:07:48;;;;;;;13.80;10.45;;;22.70;30.90;;;;;;5072915;28;20037;-61
2021/05/01 11:10:15;;;;;;;11.18;9.02;;;22.70;30.90;;;;;;5068422;28;20033;-62
2021/05/01 11:12:53;;;;;;;13.30;10.15;;;22.70;30.80;;;;;;5067768;28;20037;-54
2021/05/01 11:15:23;;;;;;;11.15;9.63;;;22.70;30.80;;;;;;5068596;28;20432;-60
2021/05/01 11:17:49;;;;;;;14.10;10.73;;;22.70;30.80;;;;;;5039742;28;20028;-57
2021/05/01 11:20:17;;;;;;;10.95;9.48;;;22.70;30.80;;;;;;5065148;28;20459;-58
2021/05/01 11:22:45;;;;;;;12.05;8.50;;;22.70;30.80;;;;;;5073686;28;20028;-62
2021/05/01 11:25:16;;;;;;;12.73;10.82;;;22.70;30.70;;;;;;5049236;28;20085;-63
2021/05/01 11:27:45;;;;;;;13.95;11.18;;;22.70;30.60;;;;;;5080416;28;20186;-67
2021/05/01 11:30:14;;;;;;;16.30;11.45;;;22.70;30.50;;;;;;5052020;28;20064;-64
2021/05/01 11:32:40;;;;;;;14.80;11.90;;;22.80;30.60;;;;;;5077883;28;20027;-60
2021/05/01 11:35:12;;;;;;;15.10;12.85;;;22.70;30.60;;;;;;5061243;28;20526;-61
2021/05/01 11:37:51;;;;;;;18.40;14.55;;;22.80;30.70;;;;;;5066699;28;20028;-59
2021/05/01 11:40:26;;;;;;;19.70;15.68;;;22.70;30.70;;;;;;5062783;28;20379;-59
2021/05/01 11:42:54;;;;;;;21.08;17.60;;;22.80;31.00;;;;;;5080346;28;20084;-55
2021/05/01 11:45:46;;;;;;;21.20;18.13;;;22.80;31.30;;;;;;5077051;28;20044;-61
2021/05/01 11:48:17;;;;;;;24.85;20.50;;;22.80;31.60;;;;;;5077916;28;20127;-57
2021/05/01 11:50:48;;;;;;;24.55;20.45;;;22.80;31.80;;;;;;5063126;28;20048;-58
2021/05/01 11:57:09;;;;;;;22.70;19.25;;;22.70;31.20;;;;;;5021005;27;807632;-57
2021/05/01 11:59:43;;;;;;;25.58;21.13;;;22.70;32.00;;;;;;5029555;28;20022;-60
2021/05/01 12:02:11;;;;;;;25.20;19.83;;;22.80;32.50;;;;;;5026664;28;20053;-61
2021/05/01 12:04:58;;;;;;;24.63;21.13;;;22.80;32.60;;;;;;5029602;28;20354;-53
2021/05/01 12:07:36;;;;;;;24.17;19.25;;;22.80;32.60;;;;;;5029463;28;20037;-54
2021/05/01 12:10:11;;;;;;;21.70;18.55;;;22.90;32.60;;;;;;5024511;28;20022;-61
2021/05/01 12:12:48;;;;;;;21.95;19.50;;;23.00;32.50;;;;;;5023488;28;20026;-49
2021/05/01 12:15:15;;;;;;;24.17;19.08;;;23.00;32.30;;;;;;5027357;28;20125;-52
2021/05/01 12:17:52;;;;;;;22.02;18.77;;;23.10;32.10;;;;;;5029124;28;20038;-53
2021/05/01 12:20:19;;;;;;;26.55;19.67;;;23.10;31.90;;;;;;5027052;28;20029;-48
2021/05/01 12:22:46;;;;;;;22.77;19.00;;;23.10;31.80;;;;;;5029671;28;20499;-54
2021/05/01 12:25:30;;;;;;;19.17;16.25;;;23.20;31.70;;;;;;5029794;28;20065;-50
2021/05/01 12:27:57;;;;;;;19.17;16.40;;;23.20;31.60;;;;;;5024431;28;20044;-52
2021/05/01 12:30:39;;;;;;;20.05;16.90;;;23.20;31.60;;;;;;5010766;28;20034;-54
2021/05/01 12:33:44;;;;;;;17.98;14.85;;;23.30;31.60;;;;;;5029087;28;20048;-57
2021/05/01 12:36:12;;;;;;;17.60;14.13;;;23.30;31.50;;;;;;4972757;28;20145;-53
2021/05/01 12:38:40;;;;;;;20.33;14.07;;;23.30;31.40;;;;;;4977619;28;20074;-47
2021/05/01 12:41:09;;;;;;;17.85;15.70;;;23.40;31.30;;;;;;5006223;28;20567;-57
2021/05/01 12:43:34;;;;;;;17.88;15.70;;;23.40;31.10;;;;;;5026491;28;20540;-56
2021/05/01 12:46:04;;;;;;;18.83;15.48;;;23.50;31.20;;;;;;5028295;28;20109;-54
2021/05/01 12:48:43;;;;;;;18.15;14.88;;;23.50;31.10;;;;;;5023699;28;20347;-51
2021/05/01 12:51:17;;;;;;;18.38;15.02;;;23.60;31.00;;;;;;5027139;28;20034;-46
2021/05/01 12:53:43;;;;;;;17.40;15.05;;;23.60;30.90;;;;;;5027448;28;20357;-55